Wakatake Maru — JL6603 — position and weather

sailwx.info

Track history (hours):
 
Tides and Currents Weather Stations Pressure Air Temp Water Temp Dewpoint Dewpoint Depression Visibility Wind Speed Wind Dir Waves Ship Positions

Wakatake Maru

Last reported at 2017-Dec-11 16:52 UTC. Time now 2017-Dec-12 02:52 UTC.
Position N 33°53' E 132°26'.

Length 73 m; draft 4 m.

Type: Cargo ship. MMSI: 431501662.

Date/timePositionNaut miles runAvg speedWind from/ knotsBaromVisibWave heightAir tempDewpointWater temp
2017-Dec-11 16:52N 33°53' E 132°26'410.6
2017-Dec-11 16:30N 33°55' E 132°29'610.8
2017-Dec-11 15:55N 33°60' E 132°35'410.8
2017-Dec-11 15:30N 34°02' E 132°40'74 9.8
2017-Dec-11 08:01N 34°27' E 134°04'013.4
2017-Dec-11 08:00N 34°27' E 134°04'1510.1
2017-Dec-11 06:32N 34°26' E 134°22'210.9
2017-Dec-11 06:20N 34°27' E 134°24'411.2
2017-Dec-11 06:00N 34°28' E 134°28'511.0
2017-Dec-11 05:30N 34°30' E 134°35'611.1
2017-Dec-11 05:00N 34°32' E 134°41'611.7
2017-Dec-11 04:30N 34°34' E 134°47'612.4
2017-Dec-11 04:00N 34°36' E 134°54'611.2
2017-Dec-11 03:30N 34°37' E 135°01'510.8
2017-Dec-11 03:00N 34°36' E 135°08'611.1
2017-Dec-11 02:30N 34°38' E 135°14'2 3.0
2017-Dec-11 02:00N 34°39' E 135°15'0 0.0
2017-Dec-11 01:30N 34°39' E 135°15'0 0.0
2017-Dec-11 01:00N 34°39' E 135°15'0 0.0
2017-Dec-11 00:30N 34°39' E 135°15'1 1.1
2017-Dec-11 00:00N 34°40' E 135°15'2 3.6
2017-Dec-10 23:30N 34°41' E 135°17'0 0.0
2017-Dec-10 23:00N 34°41' E 135°17'2 3.5
2017-Dec-10 22:30N 34°41' E 135°15'2 0.1
2017-Dec-09 23:00N 34°42' E 135°13'3 6.7
2017-Dec-09 22:30N 34°39' E 135°16'0 0.9
2017-Dec-09 22:01N 34°38' E 135°15'0 0.0
2017-Dec-09 21:31N 34°38' E 135°15'0 0.0
2017-Dec-09 21:00N 34°38' E 135°15'0 0.0
2017-Dec-09 20:30N 34°38' E 135°15'0 0.0
2017-Dec-09 20:00N 34°38' E 135°15'0 0.0
2017-Dec-09 19:31N 34°38' E 135°15'0 0.0
2017-Dec-09 19:00N 34°38' E 135°15'0 0.1
2017-Dec-09 18:31N 34°39' E 135°15'510.3
2017-Dec-09 18:01N 34°36' E 135°10'510.9
2017-Dec-09 17:30N 34°36' E 135°03'5 9.7
2017-Dec-09 17:01N 34°37' E 134°57'510.7
2017-Dec-09 16:31N 34°34' E 134°52'510.8
2017-Dec-09 16:00N 34°32' E 134°45'611.1
2017-Dec-09 15:30N 34°30' E 134°39'2311.1
2017-Dec-09 13:23N 34°25' E 134°12'7410.5
2017-Dec-09 06:18N 34°01' E 132°46'412.5
2017-Dec-09 06:00N 33°58' E 132°43'712.7
2017-Dec-09 05:28N 33°54' E 132°37'4012.4
2017-Dec-09 02:15N 33°28' E 132°01'413.1
2017-Dec-09 01:58N 33°25' E 131°57'612.3
2017-Dec-09 01:30N 33°22' E 131°52'611.4
2017-Dec-09 01:00N 33°18' E 131°47'4 7.2
2017-Dec-09 00:30N 33°15' E 131°44'0 0.0
2017-Dec-08 20:38N 33°15' E 131°44'1 4.1
2017-Dec-08 20:29N 33°16' E 131°44'611.6
2017-Dec-08 20:00N 33°21' E 131°47'612.5
2017-Dec-08 19:30N 33°26' E 131°50'510.9
2017-Dec-08 19:00N 33°30' E 131°55'3110.9
2017-Dec-08 16:09N 33°47' E 132°27'211.3
2017-Dec-08 16:00N 33°48' E 132°28'611.2
2017-Dec-08 15:30N 33°51' E 132°34'610.9
2017-Dec-08 14:58N 33°55' E 132°39'510.2
2017-Dec-08 14:28N 33°59' E 132°43'7210.2
2017-Dec-08 07:23N 34°27' E 134°03'12 9.7
2017-Dec-08 06:06N 34°25' E 134°18'111.4
2017-Dec-08 06:00N 34°25' E 134°20'511.1
2017-Dec-08 05:30N 34°27' E 134°26'611.3
2017-Dec-08 05:00N 34°29' E 134°32'611.5
2017-Dec-08 04:30N 34°31' E 134°39'612.3
2017-Dec-08 04:00N 34°33' E 134°46'713.8
2017-Dec-08 03:30N 34°36' E 134°54'713.7
2017-Dec-08 03:00N 34°37' E 135°02'612.0
2017-Dec-08 02:30N 34°37' E 135°09'611.9
2017-Dec-08 02:00N 34°38' E 135°16'3 5.6
2017-Dec-08 01:30N 34°41' E 135°17'0 0.0
2017-Dec-08 01:01N 34°41' E 135°17'0 0.4
2017-Dec-08 00:30N 34°41' E 135°16'2 3.2
2017-Dec-08 00:00N 34°40' E 135°15'1 1.3
2017-Dec-07 23:30N 34°39' E 135°15'1 1.1
2017-Dec-07 23:00N 34°39' E 135°15'0 0.0
2017-Dec-07 15:16N 34°39' E 135°15'1 4.0
2017-Dec-07 15:01N 34°38' E 135°14'611.4
2017-Dec-07 14:31N 34°36' E 135°08'510.2
2017-Dec-07 14:01N 34°37' E 135°02'5 9.8
2017-Dec-07 13:30N 34°36' E 134°56'510.7
2017-Dec-07 13:00N 34°34' E 134°50'611.3
2017-Dec-07 12:30N 34°31' E 134°43'611.8
2017-Dec-07 12:00N 34°29' E 134°37'  
2017-Dec-04 10:30N 34°37' E 135°03'713.0
2017-Dec-04 10:00N 34°37' E 135°11'4 7.1
2017-Dec-04 09:31N 34°40' E 135°14'0 0.1
2017-Dec-04 09:00N 34°40' E 135°14'0 0.0
2017-Dec-04 08:31N 34°40' E 135°14'2 4.9
2017-Dec-04 08:00N 34°41' E 135°17'0 0.0
2017-Dec-04 07:30N 34°41' E 135°17'0 0.5
2017-Dec-04 07:00N 34°41' E 135°17'0 0.0
2017-Dec-04 06:31N 34°41' E 135°17'0 0.0
2017-Dec-04 06:00N 34°41' E 135°17'0 0.0
2017-Dec-04 05:30N 34°41' E 135°17'3 5.6
2017-Dec-04 05:00N 34°40' E 135°20'5 9.2
2017-Dec-04 04:31N 34°38' E 135°25'0 0.0
2017-Dec-04 04:00N 34°38' E 135°25'2 3.3
2017-Dec-04 03:30N 34°37' E 135°23'0 0.0
2017-Dec-04 03:00N 34°38' E 135°23'0 0.1
2017-Dec-04 02:30N 34°37' E 135°23'0 0.1
2017-Dec-04 02:01N 34°37' E 135°23'0 0.0
2017-Dec-04 01:30N 34°37' E 135°23'2 3.3
2017-Dec-04 01:00N 34°39' E 135°22'611.2
2017-Dec-04 00:30N 34°39' E 135°15'0 0.7
2017-Dec-04 00:00N 34°39' E 135°15'1 2.1
2017-Dec-03 23:30N 34°38' E 135°15'0 0.0
2017-Dec-03 23:00N 34°38' E 135°15'0 0.0
2017-Dec-03 22:30N 34°38' E 135°15'0 0.0
2017-Dec-03 22:00N 34°38' E 135°15'0 0.0
2017-Dec-03 21:30N 34°38' E 135°15'0 0.0
2017-Dec-03 21:00N 34°38' E 135°15'0 0.0
2017-Dec-03 20:30N 34°38' E 135°15'0 0.0
2017-Dec-03 20:00N 34°38' E 135°15'4 7.4
2017-Dec-03 19:30N 34°36' E 135°11'611.5
2017-Dec-03 19:01N 34°35' E 135°04'612.3
2017-Dec-03 18:30N 34°36' E 134°57'714.0
2017-Dec-03 18:00N 34°33' E 134°49'612.4
2017-Dec-03 17:30N 34°31' E 134°42'611.9
2017-Dec-03 16:59N 34°29' E 134°35'1912.0
2017-Dec-03 15:24N 34°24' E 134°13'7511.8
2017-Dec-03 09:00N 34°05' E 132°45'612.1
2017-Dec-03 08:30N 34°02' E 132°38'712.1
2017-Dec-03 07:55N 33°57' E 132°32'1111.9
2017-Dec-03 06:57N 33°50' E 132°21'1211.2
2017-Dec-03 05:51N 33°47' E 132°07'410.9
2017-Dec-03 05:29N 33°46' E 132°02'611.6
2017-Dec-03 04:56N 33°46' E 131°54'512.3
2017-Dec-03 04:30N 33°47' E 131°48'612.7
2017-Dec-03 04:01N 33°48' E 131°41'612.9
2017-Dec-03 03:31N 33°49' E 131°33'612.7
2017-Dec-03 03:01N 33°51' E 131°26'612.6
2017-Dec-03 02:31N 33°52' E 131°18'612.6
2017-Dec-03 02:00N 33°54' E 131°11'612.2
2017-Dec-03 01:31N 33°57' E 131°04'510.5
2017-Dec-03 01:01N 33°58' E 130°58'4 8.6
2017-Dec-03 00:30N 33°54' E 130°55'4 8.2
2017-Dec-03 00:01N 33°57' E 130°51'510.9
2017-Dec-02 23:31N 33°58' E 130°45'611.9
2017-Dec-02 23:00N 33°57' E 130°38'2 3.7
2017-Dec-02 22:31N 33°57' E 130°35'3 6.5
2017-Dec-02 22:01N 33°57' E 130°39'611.0
2017-Dec-02 21:31N 33°57' E 130°33'510.3
2017-Dec-02 21:01N 33°56' E 130°27'5 9.6
2017-Dec-02 20:31N 33°54' E 130°21'510.4
2017-Dec-02 20:00N 33°51' E 130°16'510.4
2017-Dec-02 19:30N 33°48' E 130°11'510.2
2017-Dec-02 19:01N 33°45' E 130°06'510.2
2017-Dec-02 18:30N 33°42' E 130°01'510.2
2017-Dec-02 18:00N 33°39' E 129°56'610.0
2017-Dec-02 17:22N 33°37' E 129°49'  
Track history (hours):
 
Tides and Currents Weather Stations Pressure Air Temp Water Temp Dewpoint Dewpoint Depression Visibility Wind Speed Wind Dir Waves Ship Positions

Wakatake Maru

Last reported at 2017-Dec-11 16:52 UTC. Time now 2017-Dec-12 02:52 UTC.
Position N 33°53' E 132°26'.

Length 73 m; draft 4 m.

Type: Cargo ship. MMSI: 431501662.

Date/timePositionNaut miles runAvg speedWind from/ knotsBaromVisibWave heightAir tempDewpointWater temp
2017-Dec-11 16:52N 33°53' E 132°26'410.6
2017-Dec-11 16:30N 33°55' E 132°29'610.8
2017-Dec-11 15:55N 33°60' E 132°35'410.8
2017-Dec-11 15:30N 34°02' E 132°40'74 9.8
2017-Dec-11 08:01N 34°27' E 134°04'013.4
2017-Dec-11 08:00N 34°27' E 134°04'1510.1
2017-Dec-11 06:32N 34°26' E 134°22'210.9
2017-Dec-11 06:20N 34°27' E 134°24'411.2
2017-Dec-11 06:00N 34°28' E 134°28'511.0
2017-Dec-11 05:30N 34°30' E 134°35'611.1
2017-Dec-11 05:00N 34°32' E 134°41'611.7
2017-Dec-11 04:30N 34°34' E 134°47'612.4
2017-Dec-11 04:00N 34°36' E 134°54'611.2
2017-Dec-11 03:30N 34°37' E 135°01'510.8
2017-Dec-11 03:00N 34°36' E 135°08'611.1
2017-Dec-11 02:30N 34°38' E 135°14'2 3.0
2017-Dec-11 02:00N 34°39' E 135°15'0 0.0
2017-Dec-11 01:30N 34°39' E 135°15'0 0.0
2017-Dec-11 01:00N 34°39' E 135°15'0 0.0
2017-Dec-11 00:30N 34°39' E 135°15'1 1.1
2017-Dec-11 00:00N 34°40' E 135°15'2 3.6
2017-Dec-10 23:30N 34°41' E 135°17'0 0.0
2017-Dec-10 23:00N 34°41' E 135°17'2 3.5
2017-Dec-10 22:30N 34°41' E 135°15'2 0.1
2017-Dec-09 23:00N 34°42' E 135°13'3 6.7
2017-Dec-09 22:30N 34°39' E 135°16'0 0.9
2017-Dec-09 22:01N 34°38' E 135°15'0 0.0
2017-Dec-09 21:31N 34°38' E 135°15'0 0.0
2017-Dec-09 21:00N 34°38' E 135°15'0 0.0
2017-Dec-09 20:30N 34°38' E 135°15'0 0.0
2017-Dec-09 20:00N 34°38' E 135°15'0 0.0
2017-Dec-09 19:31N 34°38' E 135°15'0 0.0
2017-Dec-09 19:00N 34°38' E 135°15'0 0.1
2017-Dec-09 18:31N 34°39' E 135°15'510.3
2017-Dec-09 18:01N 34°36' E 135°10'510.9
2017-Dec-09 17:30N 34°36' E 135°03'5 9.7
2017-Dec-09 17:01N 34°37' E 134°57'510.7
2017-Dec-09 16:31N 34°34' E 134°52'510.8
2017-Dec-09 16:00N 34°32' E 134°45'611.1
2017-Dec-09 15:30N 34°30' E 134°39'2311.1
2017-Dec-09 13:23N 34°25' E 134°12'7410.5
2017-Dec-09 06:18N 34°01' E 132°46'412.5
2017-Dec-09 06:00N 33°58' E 132°43'712.7
2017-Dec-09 05:28N 33°54' E 132°37'4012.4
2017-Dec-09 02:15N 33°28' E 132°01'413.1
2017-Dec-09 01:58N 33°25' E 131°57'612.3
2017-Dec-09 01:30N 33°22' E 131°52'611.4
2017-Dec-09 01:00N 33°18' E 131°47'4 7.2
2017-Dec-09 00:30N 33°15' E 131°44'0 0.0
2017-Dec-08 20:38N 33°15' E 131°44'1 4.1
2017-Dec-08 20:29N 33°16' E 131°44'611.6
2017-Dec-08 20:00N 33°21' E 131°47'612.5
2017-Dec-08 19:30N 33°26' E 131°50'510.9
2017-Dec-08 19:00N 33°30' E 131°55'3110.9
2017-Dec-08 16:09N 33°47' E 132°27'211.3
2017-Dec-08 16:00N 33°48' E 132°28'611.2
2017-Dec-08 15:30N 33°51' E 132°34'610.9
2017-Dec-08 14:58N 33°55' E 132°39'510.2
2017-Dec-08 14:28N 33°59' E 132°43'7210.2
2017-Dec-08 07:23N 34°27' E 134°03'12 9.7
2017-Dec-08 06:06N 34°25' E 134°18'111.4
2017-Dec-08 06:00N 34°25' E 134°20'511.1
2017-Dec-08 05:30N 34°27' E 134°26'611.3
2017-Dec-08 05:00N 34°29' E 134°32'611.5
2017-Dec-08 04:30N 34°31' E 134°39'612.3
2017-Dec-08 04:00N 34°33' E 134°46'713.8
2017-Dec-08 03:30N 34°36' E 134°54'713.7
2017-Dec-08 03:00N 34°37' E 135°02'612.0
2017-Dec-08 02:30N 34°37' E 135°09'611.9
2017-Dec-08 02:00N 34°38' E 135°16'3 5.6
2017-Dec-08 01:30N 34°41' E 135°17'0 0.0
2017-Dec-08 01:01N 34°41' E 135°17'0 0.4
2017-Dec-08 00:30N 34°41' E 135°16'2 3.2
2017-Dec-08 00:00N 34°40' E 135°15'1 1.3
2017-Dec-07 23:30N 34°39' E 135°15'1 1.1
2017-Dec-07 23:00N 34°39' E 135°15'0 0.0
2017-Dec-07 15:16N 34°39' E 135°15'1 4.0
2017-Dec-07 15:01N 34°38' E 135°14'611.4
2017-Dec-07 14:31N 34°36' E 135°08'510.2
2017-Dec-07 14:01N 34°37' E 135°02'5 9.8
2017-Dec-07 13:30N 34°36' E 134°56'510.7
2017-Dec-07 13:00N 34°34' E 134°50'611.3
2017-Dec-07 12:30N 34°31' E 134°43'611.8
2017-Dec-07 12:00N 34°29' E 134°37'  
2017-Dec-04 10:30N 34°37' E 135°03'713.0
2017-Dec-04 10:00N 34°37' E 135°11'4 7.1
2017-Dec-04 09:31N 34°40' E 135°14'0 0.1
2017-Dec-04 09:00N 34°40' E 135°14'0 0.0
2017-Dec-04 08:31N 34°40' E 135°14'2 4.9
2017-Dec-04 08:00N 34°41' E 135°17'0 0.0
2017-Dec-04 07:30N 34°41' E 135°17'0 0.5
2017-Dec-04 07:00N 34°41' E 135°17'0 0.0
2017-Dec-04 06:31N 34°41' E 135°17'0 0.0
2017-Dec-04 06:00N 34°41' E 135°17'0 0.0
2017-Dec-04 05:30N 34°41' E 135°17'3 5.6
2017-Dec-04 05:00N 34°40' E 135°20'5 9.2
2017-Dec-04 04:31N 34°38' E 135°25'0 0.0
2017-Dec-04 04:00N 34°38' E 135°25'2 3.3
2017-Dec-04 03:30N 34°37' E 135°23'0 0.0
2017-Dec-04 03:00N 34°38' E 135°23'0 0.1
2017-Dec-04 02:30N 34°37' E 135°23'0 0.1
2017-Dec-04 02:01N 34°37' E 135°23'0 0.0
2017-Dec-04 01:30N 34°37' E 135°23'2 3.3
2017-Dec-04 01:00N 34°39' E 135°22'611.2
2017-Dec-04 00:30N 34°39' E 135°15'0 0.7
2017-Dec-04 00:00N 34°39' E 135°15'1 2.1
2017-Dec-03 23:30N 34°38' E 135°15'0 0.0
2017-Dec-03 23:00N 34°38' E 135°15'0 0.0
2017-Dec-03 22:30N 34°38' E 135°15'0 0.0
2017-Dec-03 22:00N 34°38' E 135°15'0 0.0
2017-Dec-03 21:30N 34°38' E 135°15'0 0.0
2017-Dec-03 21:00N 34°38' E 135°15'0 0.0
2017-Dec-03 20:30N 34°38' E 135°15'0 0.0
2017-Dec-03 20:00N 34°38' E 135°15'4 7.4
2017-Dec-03 19:30N 34°36' E 135°11'611.5
2017-Dec-03 19:01N 34°35' E 135°04'612.3
2017-Dec-03 18:30N 34°36' E 134°57'714.0
2017-Dec-03 18:00N 34°33' E 134°49'612.4
2017-Dec-03 17:30N 34°31' E 134°42'611.9
2017-Dec-03 16:59N 34°29' E 134°35'1912.0
2017-Dec-03 15:24N 34°24' E 134°13'7511.8
2017-Dec-03 09:00N 34°05' E 132°45'612.1
2017-Dec-03 08:30N 34°02' E 132°38'712.1
2017-Dec-03 07:55N 33°57' E 132°32'1111.9
2017-Dec-03 06:57N 33°50' E 132°21'1211.2
2017-Dec-03 05:51N 33°47' E 132°07'410.9
2017-Dec-03 05:29N 33°46' E 132°02'611.6
2017-Dec-03 04:56N 33°46' E 131°54'512.3
2017-Dec-03 04:30N 33°47' E 131°48'612.7
2017-Dec-03 04:01N 33°48' E 131°41'612.9
2017-Dec-03 03:31N 33°49' E 131°33'612.7
2017-Dec-03 03:01N 33°51' E 131°26'612.6
2017-Dec-03 02:31N 33°52' E 131°18'612.6
2017-Dec-03 02:00N 33°54' E 131°11'612.2
2017-Dec-03 01:31N 33°57' E 131°04'510.5
2017-Dec-03 01:01N 33°58' E 130°58'4 8.6
2017-Dec-03 00:30N 33°54' E 130°55'4 8.2
2017-Dec-03 00:01N 33°57' E 130°51'510.9
2017-Dec-02 23:31N 33°58' E 130°45'611.9
2017-Dec-02 23:00N 33°57' E 130°38'2 3.7
2017-Dec-02 22:31N 33°57' E 130°35'3 6.5
2017-Dec-02 22:01N 33°57' E 130°39'611.0
2017-Dec-02 21:31N 33°57' E 130°33'510.3
2017-Dec-02 21:01N 33°56' E 130°27'5 9.6
2017-Dec-02 20:31N 33°54' E 130°21'510.4
2017-Dec-02 20:00N 33°51' E 130°16'510.4
2017-Dec-02 19:30N 33°48' E 130°11'510.2
2017-Dec-02 19:01N 33°45' E 130°06'510.2
2017-Dec-02 18:30N 33°42' E 130°01'510.2
2017-Dec-02 18:00N 33°39' E 129°56'610.0
2017-Dec-02 17:22N 33°37' E 129°49'  

Dump ship's entire track history